Time;durP1;ratioP1;P1;durP2;ratioP2;P2;SDS_P1;SDS_P2;PMS_P1;PMS_P2;Temp;Humidity;BMP_temperature;BMP_pressure;BME280_temperature;BME280_humidity;BME280_pressure;Samples;Min_cycle;Max_cycle;Signal;HPM_P1;HPM_P2
2022/04/24 00:01:38;;;;;;;7.57;1.88;;;;;;;;;;10559196;28;20024;-71
2022/04/24 00:06:39;;;;;;;4.18;2.10;;;;;;;;;;10568333;28;20034;-73
2022/04/24 00:11:39;;;;;;;5.45;2.38;;;;;;;;;;10551199;28;20147;-74
2022/04/24 00:16:40;;;;;;;7.55;2.13;;;;;;;;;;10585355;28;20047;-76
2022/04/24 00:21:40;;;;;;;4.57;2.15;;;;;;;;;;10592449;28;20027;-74
2022/04/24 00:26:40;;;;;;;2.90;1.80;;;;;;;;;;10616878;27;20027;-73
2022/04/24 00:31:41;;;;;;;5.03;2.42;;;;;;;;;;10600424;27;20035;-71
2022/04/24 00:36:41;;;;;;;10.70;2.65;;;;;;;;;;10569229;27;20070;-74
2022/04/24 00:41:46;;;;;;;6.75;2.83;;;;;;;;;;10524178;28;20133;-74
2022/04/24 00:46:55;;;;;;;7.18;2.42;;;;;;;;;;10557507;28;20027;-74
2022/04/24 00:51:56;;;;;;;9.93;3.35;;;;;;;;;;10558212;28;20046;-73
2022/04/24 00:56:56;;;;;;;5.80;2.42;;;;;;;;;;10557236;28;20414;-74
2022/04/24 01:01:57;;;;;;;6.20;3.10;;;;;;;;;;10532410;28;20084;-73
2022/04/24 01:06:57;;;;;;;16.83;3.28;;;;;;;;;;10531855;28;20032;-71
2022/04/24 01:11:57;;;;;;;8.20;2.67;;;;;;;;;;10531501;28;20028;-71
2022/04/24 01:16:58;;;;;;;7.57;2.53;;;;;;;;;;10594580;27;20055;-74
2022/04/24 01:21:59;;;;;;;8.48;3.00;;;;;;;;;;10598719;27;20038;-74
2022/04/24 01:26:59;;;;;;;7.03;2.90;;;;;;;;;;10564392;28;20046;-75
2022/04/24 01:32:00;;;;;;;5.80;2.80;;;;;;;;;;10574661;28;20403;-78
2022/04/24 01:37:01;;;;;;;4.68;2.35;;;;;;;;;;10554467;28;20161;-71
2022/04/24 01:42:01;;;;;;;6.78;2.47;;;;;;;;;;10555328;28;20016;-73
2022/04/24 01:47:01;;;;;;;7.85;3.60;;;;;;;;;;10555446;28;20035;-70
2022/04/24 01:52:02;;;;;;;4.00;2.45;;;;;;;;;;10555632;28;20032;-74
2022/04/24 01:57:02;;;;;;;6.83;2.63;;;;;;;;;;10553789;28;20028;-72
2022/04/24 02:02:02;;;;;;;7.90;2.73;;;;;;;;;;10554970;28;20517;-75
2022/04/24 02:07:03;;;;;;;4.73;2.43;;;;;;;;;;10552618;28;20032;-73
2022/04/24 02:12:03;;;;;;;3.95;2.38;;;;;;;;;;10554219;28;20360;-70
2022/04/24 02:17:04;;;;;;;6.40;2.42;;;;;;;;;;10589625;27;20494;-73
2022/04/24 02:22:04;;;;;;;4.35;3.17;;;;;;;;;;10529758;28;20026;-73
2022/04/24 02:27:05;;;;;;;6.03;3.22;;;;;;;;;;10511681;28;20077;-75
2022/04/24 02:32:05;;;;;;;7.72;3.20;;;;;;;;;;10512032;28;20448;-74
2022/04/24 02:37:05;;;;;;;4.10;3.65;;;;;;;;;;10510699;28;20407;-75
2022/04/24 02:42:06;;;;;;;5.95;3.08;;;;;;;;;;10530009;28;20408;-75
2022/04/24 02:47:06;;;;;;;4.17;3.20;;;;;;;;;;10528480;28;20411;-72
2022/04/24 02:52:06;;;;;;;6.20;3.40;;;;;;;;;;10540095;28;20490;-76
2022/04/24 02:57:07;;;;;;;10.02;3.53;;;;;;;;;;10552343;28;20038;-77
2022/04/24 03:02:08;;;;;;;13.65;3.92;;;;;;;;;;10552619;28;20024;-73
2022/04/24 03:07:08;;;;;;;9.75;4.38;;;;;;;;;;10571665;28;20034;-75
2022/04/24 03:12:09;;;;;;;10.15;3.90;;;;;;;;;;10551900;28;20031;-76
2022/04/24 03:17:09;;;;;;;9.05;3.75;;;;;;;;;;10570424;28;20376;-73
2022/04/24 03:22:09;;;;;;;7.07;3.58;;;;;;;;;;10534408;28;20470;-76
2022/04/24 03:27:09;;;;;;;9.00;3.83;;;;;;;;;;10552036;28;20590;-74
2022/04/24 03:32:10;;;;;;;13.30;3.80;;;;;;;;;;10550596;28;20456;-76
2022/04/24 03:37:10;;;;;;;11.10;3.70;;;;;;;;;;10548598;28;20470;-76
2022/04/24 03:42:10;;;;;;;7.35;2.60;;;;;;;;;;10510488;28;20024;-75
2022/04/24 03:47:11;;;;;;;5.78;2.92;;;;;;;;;;10508725;28;20514;-74
2022/04/24 03:52:11;;;;;;;6.15;2.70;;;;;;;;;;10509157;28;20403;-72
2022/04/24 03:57:12;;;;;;;7.53;3.67;;;;;;;;;;10508745;28;20022;-76
2022/04/24 04:02:12;;;;;;;13.85;3.38;;;;;;;;;;10517741;28;20020;-74
2022/04/24 04:07:12;;;;;;;9.63;3.00;;;;;;;;;;10514949;28;20058;-70
2022/04/24 04:12:13;;;;;;;5.63;3.08;;;;;;;;;;10519021;28;20039;-70
2022/04/24 04:17:13;;;;;;;6.53;3.20;;;;;;;;;;10518967;28;20040;-73
2022/04/24 04:22:13;;;;;;;6.18;2.95;;;;;;;;;;10517216;28;20048;-71
2022/04/24 04:27:13;;;;;;;8.70;2.95;;;;;;;;;;10517195;28;20024;-75
2022/04/24 04:32:14;;;;;;;7.25;2.75;;;;;;;;;;10514193;28;20107;-74
2022/04/24 04:37:14;;;;;;;8.63;3.63;;;;;;;;;;10515547;28;20035;-74
2022/04/24 04:42:14;;;;;;;8.73;3.65;;;;;;;;;;10514384;28;20094;-73
2022/04/24 04:47:15;;;;;;;11.93;3.15;;;;;;;;;;10516669;28;20016;-73
2022/04/24 04:52:15;;;;;;;5.53;3.78;;;;;;;;;;10517826;28;20020;-76
2022/04/24 04:57:16;;;;;;;15.25;6.25;;;;;;;;;;10521425;28;20024;-75
2022/04/24 05:02:16;;;;;;;4.60;2.67;;;;;;;;;;10557684;28;20041;-75
2022/04/24 05:07:16;;;;;;;3.95;2.67;;;;;;;;;;10576972;28;20461;-76
2022/04/24 05:12:17;;;;;;;7.93;2.53;;;;;;;;;;10536478;28;20384;-74
2022/04/24 05:17:17;;;;;;;7.47;3.00;;;;;;;;;;10596544;27;20047;-75
2022/04/24 05:22:17;;;;;;;8.80;3.67;;;;;;;;;;10600317;27;20446;-78
2022/04/24 05:27:19;;;;;;;8.75;2.78;;;;;;;;;;10598019;27;20026;-74
2022/04/24 05:32:19;;;;;;;14.10;4.35;;;;;;;;;;10558020;28;20080;-74
2022/04/24 05:37:20;;;;;;;8.15;3.97;;;;;;;;;;10556281;28;20024;-73
2022/04/24 05:42:20;;;;;;;8.93;3.55;;;;;;;;;;10549432;28;20023;-76
2022/04/24 05:47:20;;;;;;;8.23;3.35;;;;;;;;;;10555496;28;20015;-77
2022/04/24 05:52:21;;;;;;;9.45;3.15;;;;;;;;;;10546621;28;20035;-77
2022/04/24 05:57:21;;;;;;;7.80;2.75;;;;;;;;;;10573947;28;20027;-74
2022/04/24 06:02:21;;;;;;;5.45;2.88;;;;;;;;;;10538436;28;20641;-74
2022/04/24 06:07:23;;;;;;;9.40;2.80;;;;;;;;;;10574110;28;20379;-77
2022/04/24 06:12:23;;;;;;;6.85;2.60;;;;;;;;;;10546097;28;20529;-76
2022/04/24 06:17:23;;;;;;;4.77;2.70;;;;;;;;;;10529079;28;20058;-77
2022/04/24 06:22:24;;;;;;;6.43;2.72;;;;;;;;;;10513119;28;20118;-72
2022/04/24 06:27:24;;;;;;;10.80;2.20;;;;;;;;;;10528063;28;20022;-74
2022/04/24 06:32:28;;;;;;;4.90;2.92;;;;;;;;;;10546300;28;20020;-74
2022/04/24 06:37:28;;;;;;;5.30;2.10;;;;;;;;;;10522342;28;20417;-77
2022/04/24 06:42:28;;;;;;;5.50;1.50;;;;;;;;;;10528045;28;20008;-76
2022/04/24 06:47:29;;;;;;;3.73;1.57;;;;;;;;;;10525977;28;20024;-73
2022/04/24 06:52:29;;;;;;;9.87;2.13;;;;;;;;;;10532711;28;20026;-79
2022/04/24 06:57:29;;;;;;;9.73;1.90;;;;;;;;;;10523319;28;20054;-77
2022/04/24 07:02:30;;;;;;;11.82;2.53;;;;;;;;;;10510541;28;20262;-76
2022/04/24 07:07:30;;;;;;;7.78;1.70;;;;;;;;;;10530290;28;20038;-75
2022/04/24 07:12:30;;;;;;;5.47;1.33;;;;;;;;;;10538587;28;20154;-72
2022/04/24 07:17:30;;;;;;;4.77;1.33;;;;;;;;;;10530755;28;20055;-73
2022/04/24 07:22:40;;;;;;;7.90;2.10;;;;;;;;;;10543900;28;20441;-73
2022/04/24 07:27:40;;;;;;;5.28;1.80;;;;;;;;;;10515196;28;20081;-72
2022/04/24 07:32:40;;;;;;;6.93;1.88;;;;;;;;;;10522200;28;20126;-73
2022/04/24 07:37:41;;;;;;;5.37;1.70;;;;;;;;;;10549210;28;20015;-75
2022/04/24 07:42:45;;;;;;;4.88;1.35;;;;;;;;;;10539286;28;20064;-72
2022/04/24 07:47:46;;;;;;;3.70;1.77;;;;;;;;;;10505722;28;20021;-79
2022/04/24 07:52:47;;;;;;;3.58;1.27;;;;;;;;;;10518090;28;20480;-71
2022/04/24 07:57:48;;;;;;;3.67;1.10;;;;;;;;;;10531176;28;20532;-72
2022/04/24 08:02:52;;;;;;;9.95;1.60;;;;;;;;;;10524872;28;20020;-71
2022/04/24 08:07:53;;;;;;;6.15;1.92;;;;;;;;;;10530957;28;20020;-74
2022/04/24 08:12:54;;;;;;;7.00;1.77;;;;;;;;;;10510486;28;20020;-77
2022/04/24 08:17:54;;;;;;;4.87;1.50;;;;;;;;;;10517473;28;20555;-76
2022/04/24 08:22:55;;;;;;;6.03;1.77;;;;;;;;;;10570281;28;20265;-75
2022/04/24 08:27:56;;;;;;;4.60;1.75;;;;;;;;;;10534318;28;20019;-76
2022/04/24 08:32:56;;;;;;;4.20;1.63;;;;;;;;;;10493207;28;20023;-76
2022/04/24 08:37:56;;;;;;;5.00;1.48;;;;;;;;;;10510431;28;20087;-73
2022/04/24 08:42:57;;;;;;;5.70;1.50;;;;;;;;;;10528111;28;20496;-75
2022/04/24 08:47:57;;;;;;;8.40;1.40;;;;;;;;;;10532923;28;20442;-72
2022/04/24 08:52:58;;;;;;;6.35;1.33;;;;;;;;;;10517270;28;20022;-72
2022/04/24 08:57:59;;;;;;;5.70;2.58;;;;;;;;;;10516675;28;20101;-73
2022/04/24 09:03:00;;;;;;;3.58;1.17;;;;;;;;;;10516352;28;20081;-73
2022/04/24 09:08:10;;;;;;;6.10;1.02;;;;;;;;;;10541117;28;20026;-71
2022/04/24 09:13:10;;;;;;;4.38;1.10;;;;;;;;;;10535206;28;20024;-76
2022/04/24 09:18:11;;;;;;;6.00;1.15;;;;;;;;;;10515620;28;20040;-75
2022/04/24 09:23:11;;;;;;;9.82;0.90;;;;;;;;;;10534688;28;20051;-73
2022/04/24 09:28:11;;;;;;;4.05;0.90;;;;;;;;;;10515835;28;20048;-72
2022/04/24 09:33:13;;;;;;;6.83;1.03;;;;;;;;;;10515646;28;20053;-75
2022/04/24 09:38:14;;;;;;;5.10;0.95;;;;;;;;;;10541951;28;20045;-71
2022/04/24 09:43:16;;;;;;;5.45;1.13;;;;;;;;;;10557300;28;20517;-74
2022/04/24 09:48:17;;;;;;;3.30;0.90;;;;;;;;;;10556058;28;20432;-75
2022/04/24 09:53:19;;;;;;;4.05;1.20;;;;;;;;;;10556791;28;20016;-72
2022/04/24 09:58:22;;;;;;;3.72;1.15;;;;;;;;;;10555987;28;20015;-72
2022/04/24 10:03:23;;;;;;;2.17;1.17;;;;;;;;;;10555092;28;20114;-73
2022/04/24 10:08:23;;;;;;;2.92;0.90;;;;;;;;;;10539534;28;20023;-72
2022/04/24 10:13:24;;;;;;;2.85;0.80;;;;;;;;;;10554457;28;20023;-76
2022/04/24 10:18:33;;;;;;;4.50;1.35;;;;;;;;;;10555819;28;20054;-73
2022/04/24 10:23:34;;;;;;;4.88;0.98;;;;;;;;;;10533193;28;20385;-76
2022/04/24 10:28:39;;;;;;;7.00;1.00;;;;;;;;;;10550041;28;20031;-77
2022/04/24 10:33:40;;;;;;;3.30;1.10;;;;;;;;;;10550897;28;20023;-73
2022/04/24 10:38:49;;;;;;;7.22;1.10;;;;;;;;;;10554297;28;20023;-75
2022/04/24 10:43:51;;;;;;;2.40;0.77;;;;;;;;;;10518633;28;20118;-77
2022/04/24 10:48:52;;;;;;;2.50;0.73;;;;;;;;;;10512707;28;20016;-75
2022/04/24 10:53:57;;;;;;;3.25;0.80;;;;;;;;;;10512858;28;20415;-74
2022/04/24 10:59:11;;;;;;;3.90;1.13;;;;;;;;;;10553303;28;20053;-71
2022/04/24 11:04:12;;;;;;;1.67;0.80;;;;;;;;;;10554159;28;20023;-75
2022/04/24 11:09:13;;;;;;;5.57;1.25;;;;;;;;;;10508829;28;20027;-75
2022/04/24 11:14:18;;;;;;;4.78;1.00;;;;;;;;;;10536002;28;20031;-72
2022/04/24 11:19:27;;;;;;;3.92;0.85;;;;;;;;;;10505279;28;20055;-76
2022/04/24 11:24:29;;;;;;;7.60;0.95;;;;;;;;;;10556658;28;20030;-76
2022/04/24 11:29:29;;;;;;;3.10;1.33;;;;;;;;;;10551256;28;20019;-73
2022/04/24 11:34:31;;;;;;;4.80;1.40;;;;;;;;;;10532258;28;20032;-72
2022/04/24 11:39:31;;;;;;;2.83;1.25;;;;;;;;;;10509238;28;20108;-75
2022/04/24 11:50:13;;;;;;;6.07;1.70;;;;;;;;;;10556481;28;20040;-72
2022/04/24 11:55:19;;;;;;;4.75;1.05;;;;;;;;;;10514831;28;20024;-73
2022/04/24 12:00:31;;;;;;;3.97;1.35;;;;;;;;;;10570951;28;20031;-76
2022/04/24 12:05:32;;;;;;;2.40;0.93;;;;;;;;;;10552603;28;20027;-74
2022/04/24 12:10:32;;;;;;;7.95;1.30;;;;;;;;;;10551237;28;20447;-76
2022/04/24 12:15:34;;;;;;;6.50;1.70;;;;;;;;;;10570689;28;20027;-74
2022/04/24 12:20:35;;;;;;;4.05;1.77;;;;;;;;;;10539054;28;20321;-74
2022/04/24 12:25:45;;;;;;;3.20;1.42;;;;;;;;;;10560239;28;20031;-74
2022/04/24 12:30:45;;;;;;;5.25;1.40;;;;;;;;;;10578569;28;20034;-75
2022/04/24 12:35:46;;;;;;;3.70;1.48;;;;;;;;;;10559841;28;20046;-74
2022/04/24 12:40:53;;;;;;;5.10;1.50;;;;;;;;;;10559348;28;20031;-75
2022/04/24 12:45:55;;;;;;;2.88;1.15;;;;;;;;;;10536831;28;20104;-75
2022/04/24 12:50:55;;;;;;;3.17;1.00;;;;;;;;;;10517654;28;20514;-73
2022/04/24 12:55:56;;;;;;;12.15;1.60;;;;;;;;;;10525866;28;20028;-77
2022/04/24 13:00:56;;;;;;;3.95;1.40;;;;;;;;;;10503722;28;20023;-77
2022/04/24 13:05:56;;;;;;;3.25;1.20;;;;;;;;;;10558193;28;20030;-73
2022/04/24 13:10:57;;;;;;;9.30;2.03;;;;;;;;;;10535134;28;20031;-76
2022/04/24 13:21:16;;;;;;;4.75;1.70;;;;;;;;;;10553652;28;20686;-74
2022/04/24 13:26:16;;;;;;;3.83;1.50;;;;;;;;;;10535996;28;20023;-75
2022/04/24 13:31:17;;;;;;;3.78;1.70;;;;;;;;;;10521735;28;20028;-72
2022/04/24 13:36:17;;;;;;;5.50;1.40;;;;;;;;;;10533598;28;20350;-73
2022/04/24 13:41:17;;;;;;;9.63;1.80;;;;;;;;;;10515912;28;20026;-77
2022/04/24 13:46:17;;;;;;;3.92;1.30;;;;;;;;;;10531418;28;20034;-74
2022/04/24 13:51:21;;;;;;;3.45;1.80;;;;;;;;;;10525544;28;20034;-73
2022/04/24 13:56:23;;;;;;;5.47;2.53;;;;;;;;;;10560617;28;20023;-76
2022/04/24 14:01:25;;;;;;;5.22;1.95;;;;;;;;;;10518985;28;20027;-75
2022/04/24 14:06:26;;;;;;;4.55;1.40;;;;;;;;;;10530419;28;20023;-72
2022/04/24 14:11:28;;;;;;;5.20;1.77;;;;;;;;;;10532328;28;20113;-74
2022/04/24 14:16:31;;;;;;;9.07;1.55;;;;;;;;;;10518136;28;20569;-72
2022/04/24 14:21:32;;;;;;;6.97;1.63;;;;;;;;;;10529692;28;20023;-78
2022/04/24 14:26:33;;;;;;;4.38;1.30;;;;;;;;;;10522052;28;20027;-72
2022/04/24 14:31:33;;;;;;;7.57;1.60;;;;;;;;;;10516756;28;20039;-75
2022/04/24 14:36:34;;;;;;;4.97;1.88;;;;;;;;;;10530748;28;20031;-78
2022/04/24 14:41:34;;;;;;;10.98;3.45;;;;;;;;;;10526206;28;20016;-73
2022/04/24 14:57:12;;;;;;;6.57;2.40;;;;;;;;;;10538795;28;20029;-73
2022/04/24 15:15:22;;;;;;;5.70;2.13;;;;;;;;;;10578208;27;20831;-72
2022/04/24 15:20:22;;;;;;;10.77;3.03;;;;;;;;;;10519983;28;20037;-72
2022/04/24 15:25:22;;;;;;;12.47;4.30;;;;;;;;;;10502713;28;20020;-72
2022/04/24 15:30:23;;;;;;;8.25;2.55;;;;;;;;;;10477052;28;20017;-72
2022/04/24 15:35:23;;;;;;;4.93;2.90;;;;;;;;;;10477423;28;20032;-73
2022/04/24 15:40:24;;;;;;;12.45;3.35;;;;;;;;;;10551270;28;20028;-76
2022/04/24 15:45:25;;;;;;;4.03;2.55;;;;;;;;;;10518515;28;20028;-73
2022/04/24 15:50:30;;;;;;;5.47;3.03;;;;;;;;;;10550525;28;20020;-74
2022/04/24 15:55:33;;;;;;;7.97;3.45;;;;;;;;;;10551368;28;20462;-78
2022/04/24 16:00:34;;;;;;;9.80;2.65;;;;;;;;;;10551626;28;20024;-73
2022/04/24 16:05:34;;;;;;;7.47;3.43;;;;;;;;;;10554627;27;20020;-74
2022/04/24 16:10:34;;;;;;;10.13;3.03;;;;;;;;;;10553978;28;20039;-72
2022/04/24 16:15:34;;;;;;;6.57;2.80;;;;;;;;;;10494066;28;20506;-77
2022/04/24 16:20:35;;;;;;;13.83;3.90;;;;;;;;;;10493623;28;20485;-74
2022/04/24 16:25:35;;;;;;;4.72;2.70;;;;;;;;;;10493342;28;20135;-72
2022/04/24 16:30:36;;;;;;;10.63;3.08;;;;;;;;;;10511540;28;20480;-72
2022/04/24 16:35:36;;;;;;;9.18;3.05;;;;;;;;;;10469861;28;20029;-76
2022/04/24 16:40:37;;;;;;;15.35;3.25;;;;;;;;;;10491666;28;20120;-72
2022/04/24 16:45:37;;;;;;;14.85;3.08;;;;;;;;;;10483337;28;20031;-80
2022/04/24 17:01:17;;;;;;;8.63;2.83;;;;;;;;;;10489820;28;20410;-73
2022/04/24 17:06:17;;;;;;;10.10;3.20;;;;;;;;;;10524147;28;20016;-73
2022/04/24 17:11:17;;;;;;;7.18;3.00;;;;;;;;;;10488564;28;20053;-78
2022/04/24 17:16:19;;;;;;;6.23;3.93;;;;;;;;;;10490110;28;20044;-69
2022/04/24 17:21:20;;;;;;;12.75;2.97;;;;;;;;;;10487300;28;20028;-72
2022/04/24 17:26:20;;;;;;;9.53;3.57;;;;;;;;;;10471062;28;20028;-69
2022/04/24 17:31:20;;;;;;;8.60;4.67;;;;;;;;;;10468520;28;20278;-72
2022/04/24 17:36:21;;;;;;;14.27;3.00;;;;;;;;;;10522264;28;20030;-70
2022/04/24 17:41:22;;;;;;;7.28;3.45;;;;;;;;;;10487401;28;20073;-69
2022/04/24 17:46:24;;;;;;;12.98;3.30;;;;;;;;;;10486898;28;20078;-70
2022/04/24 17:51:25;;;;;;;12.35;3.60;;;;;;;;;;10483791;28;20021;-71
2022/04/24 17:56:25;;;;;;;15.73;3.60;;;;;;;;;;10485415;28;20024;-71
2022/04/24 18:01:25;;;;;;;13.07;3.80;;;;;;;;;;10484974;28;20120;-70
2022/04/24 18:06:26;;;;;;;15.93;3.97;;;;;;;;;;10482462;28;20090;-74
2022/04/24 18:11:28;;;;;;;12.52;3.80;;;;;;;;;;10485610;28;20059;-71
2022/04/24 18:16:28;;;;;;;11.65;3.40;;;;;;;;;;10458066;28;20029;-75
2022/04/24 18:21:28;;;;;;;6.90;3.40;;;;;;;;;;10502816;28;20410;-70
2022/04/24 18:26:29;;;;;;;9.10;3.27;;;;;;;;;;10487210;28;20070;-70
2022/04/24 18:31:29;;;;;;;14.67;3.53;;;;;;;;;;10505792;28;20494;-71
2022/04/24 18:41:53;;;;;;;14.50;4.78;;;;;;;;;;10493338;28;20036;-69
2022/04/24 18:46:54;;;;;;;9.37;3.50;;;;;;;;;;10508868;28;20028;-73
2022/04/24 18:51:54;;;;;;;10.93;3.50;;;;;;;;;;10538788;27;20024;-70
2022/04/24 18:56:54;;;;;;;20.83;3.95;;;;;;;;;;10504116;28;20034;-71
2022/04/24 19:01:54;;;;;;;14.10;4.00;;;;;;;;;;10493644;28;20441;-70
2022/04/24 19:12:14;;;;;;;6.05;2.75;;;;;;;;;;10497226;28;20048;-70
2022/04/24 19:17:14;;;;;;;11.68;3.85;;;;;;;;;;10494302;28;20028;-70
2022/04/24 19:22:14;;;;;;;12.40;3.42;;;;;;;;;;10530171;28;20024;-70
2022/04/24 19:27:16;;;;;;;18.17;4.78;;;;;;;;;;10538836;28;20505;-70
2022/04/24 19:32:17;;;;;;;12.45;3.47;;;;;;;;;;10534967;28;20119;-70
2022/04/24 19:37:17;;;;;;;12.25;5.25;;;;;;;;;;10505112;28;20037;-70
2022/04/24 19:42:17;;;;;;;13.02;4.30;;;;;;;;;;10503433;28;20486;-70
2022/04/24 19:47:18;;;;;;;12.60;5.60;;;;;;;;;;10506215;28;20485;-71
2022/04/24 19:52:18;;;;;;;13.13;3.77;;;;;;;;;;10502645;28;20020;-70
2022/04/24 19:57:18;;;;;;;16.13;3.43;;;;;;;;;;10477753;28;20074;-71
2022/04/24 20:02:19;;;;;;;7.03;3.17;;;;;;;;;;10486630;28;20101;-71
2022/04/24 20:07:19;;;;;;;17.85;3.70;;;;;;;;;;10483364;28;20024;-70
2022/04/24 20:12:25;;;;;;;15.05;4.22;;;;;;;;;;10469764;28;20060;-69
2022/04/24 20:17:25;;;;;;;16.17;4.18;;;;;;;;;;10482979;28;20460;-70
2022/04/24 20:22:26;;;;;;;17.95;3.83;;;;;;;;;;10488530;28;20023;-71
2022/04/24 20:27:26;;;;;;;21.45;4.80;;;;;;;;;;10489039;28;20406;-70
2022/04/24 20:32:27;;;;;;;9.38;4.20;;;;;;;;;;10488549;28;20111;-70
2022/04/24 20:37:27;;;;;;;9.07;3.57;;;;;;;;;;10488549;28;20478;-71
2022/04/24 20:42:27;;;;;;;13.45;3.92;;;;;;;;;;10488343;28;20324;-71
2022/04/24 20:47:28;;;;;;;11.45;3.65;;;;;;;;;;10494579;28;20353;-70
2022/04/24 20:52:28;;;;;;;15.95;3.50;;;;;;;;;;10504307;28;20552;-70
2022/04/24 20:57:28;;;;;;;10.33;3.17;;;;;;;;;;10509752;28;20490;-70
2022/04/24 21:02:29;;;;;;;13.75;4.55;;;;;;;;;;10482086;28;20523;-70
2022/04/24 21:07:29;;;;;;;15.88;3.50;;;;;;;;;;10521170;28;20025;-70
2022/04/24 21:12:29;;;;;;;14.48;3.85;;;;;;;;;;10490154;28;20511;-70
2022/04/24 21:17:30;;;;;;;16.45;4.05;;;;;;;;;;10490311;28;20512;-70
2022/04/24 21:22:30;;;;;;;17.13;3.47;;;;;;;;;;10490181;28;20452;-71
2022/04/24 21:27:30;;;;;;;17.20;4.53;;;;;;;;;;10489775;28;20090;-73
2022/04/24 21:32:30;;;;;;;18.80;3.80;;;;;;;;;;10489704;28;20050;-69
2022/04/24 21:37:31;;;;;;;16.40;4.63;;;;;;;;;;10489375;28;20123;-71
2022/04/24 21:42:31;;;;;;;21.90;3.75;;;;;;;;;;10490680;28;20020;-70
2022/04/24 21:47:33;;;;;;;14.15;3.83;;;;;;;;;;10480434;28;20518;-70
2022/04/24 21:52:33;;;;;;;17.17;4.40;;;;;;;;;;10481015;28;20108;-75
2022/04/24 21:57:34;;;;;;;10.38;3.75;;;;;;;;;;10463979;28;20021;-70
2022/04/24 22:07:53;;;;;;;27.88;4.38;;;;;;;;;;10448388;28;20017;-70
2022/04/24 22:12:54;;;;;;;19.88;4.20;;;;;;;;;;10462960;28;20053;-72
2022/04/24 22:17:55;;;;;;;10.77;3.13;;;;;;;;;;10447466;28;20121;-71
2022/04/24 22:28:14;;;;;;;20.60;4.28;;;;;;;;;;10448362;28;20025;-70
2022/04/24 22:33:14;;;;;;;22.48;3.92;;;;;;;;;;10447375;28;20487;-72
2022/04/24 22:38:14;;;;;;;22.45;4.50;;;;;;;;;;10462827;28;20028;-69
2022/04/24 22:43:16;;;;;;;19.07;3.37;;;;;;;;;;10462642;28;20021;-70
2022/04/24 22:48:16;;;;;;;15.50;4.38;;;;;;;;;;10446176;28;20531;-69
2022/04/24 22:53:16;;;;;;;19.92;3.70;;;;;;;;;;10462873;28;20021;-72
2022/04/24 22:58:16;;;;;;;18.73;3.90;;;;;;;;;;10462388;28;20141;-70
2022/04/24 23:03:17;;;;;;;20.73;4.38;;;;;;;;;;10462117;28;20120;-70
2022/04/24 23:08:17;;;;;;;11.73;3.88;;;;;;;;;;10478620;28;20036;-71
2022/04/24 23:13:18;;;;;;;20.48;3.92;;;;;;;;;;10461458;28;20056;-71
2022/04/24 23:23:37;;;;;;;21.38;3.63;;;;;;;;;;10449589;28;20017;-70
2022/04/24 23:28:38;;;;;;;15.35;4.05;;;;;;;;;;10470331;28;20017;-74
2022/04/24 23:33:38;;;;;;;18.42;5.05;;;;;;;;;;10469530;28;20544;-71
2022/04/24 23:38:38;;;;;;;19.35;5.05;;;;;;;;;;10470388;28;20415;-73
2022/04/24 23:43:40;;;;;;;19.93;5.77;;;;;;;;;;10486201;28;20025;-72
2022/04/24 23:48:40;;;;;;;22.65;4.60;;;;;;;;;;10454041;28;20654;-75
2022/04/24 23:53:40;;;;;;;14.05;4.95;;;;;;;;;;10469029;28;20032;-72
2022/04/24 23:58:41;;;;;;;17.33;4.18;;;;;;;;;;10469143;28;20510;-69
